This is the latest recevied weather packets stored in our database for station/object JF2ZGN-13. If no packets are shown the sender has not sent any weather packets the latest 10 day(s).
| Time | Temp. | Humidity | Pressure | Rain* | Wind** | Luminosity | Snow |
|---|---|---|---|---|---|---|---|
| 1787544309 | 24.44° C | 78% | 912.8 hPa | 0 mm | - | - | - |
| 1787543708 | 25° C | 76% | 912.9 hPa | 0 mm | - | - | - |
| 1787543108 | 25° C | 80% | 913 hPa | 0 mm | - | - | - |
| 1787542508 | 24.44° C | 81% | 913 hPa | 0 mm | - | - | - |
| 1787541907 | 23.33° C | 84% | 913.1 hPa | 0 mm | - | - | - |
| 1787541307 | 23.33° C | 84% | 913.1 hPa | 0 mm | - | - | - |
| 1787540706 | 22.78° C | 84% | 913 hPa | 0 mm | - | - | - |
| 1787540106 | 23.33° C | 83% | 913.1 hPa | 0 mm | - | - | - |
| 1787539506 | 23.89° C | 81% | 913.1 hPa | 0 mm | - | - | - |
| 1787538905 | 23.89° C | 82% | 913.2 hPa | 0 mm | - | - | - |
| 1787538305 | 23.33° C | 81% | 913.3 hPa | 0 mm | - | - | - |
| 1787537704 | 23.89° C | 80% | 913.3 hPa | 0 mm | - | - | - |
| 1787537103 | 24.44° C | 78% | 913.3 hPa | 0 mm | - | - | - |
| 1787536503 | 24.44° C | 78% | 913.4 hPa | 0 mm | - | - | - |
| 1787535903 | 23.89° C | 80% | 913.4 hPa | 0 mm | - | - | - |
| 1787535302 | 23.89° C | 79% | 913.2 hPa | 0 mm | - | - | - |
| 1787534701 | 24.44° C | 75% | 913.5 hPa | 0 mm | - | - | - |
| 1787534100 | 24.44° C | 74% | 913.3 hPa | 0 mm | - | - | - |
| 1787533499 | 24.44° C | 75% | 913.6 hPa | 0 mm | - | - | - |
| 1787532899 | 24.44° C | 75% | 913.6 hPa | 0 mm | - | - | - |
| 1787532299 | 24.44° C | 74% | 913.6 hPa | 0 mm | - | - | - |
| 1787531698 | 25.56° C | 74% | 913.5 hPa | 0 mm | - | - | - |
| 1787531097 | 25.56° C | 77% | 913.5 hPa | 0 mm | - | - | - |
| 1787530497 | 25° C | 79% | 913.4 hPa | 0 mm | - | - | - |
| 1787529897 | 23.33° C | 82% | 913.3 hPa | 0 mm | - | - | - |
* Rain since midnight (hover to see other rain measurements)
** Current wind speed in m/s (hover to see current wind gust speed)